sensor_id;sensor_type;location;lat;lon;timestamp;temperature;humidity
60242;SHT30;46103;52.076;113.488;2023-02-28T00:00:16;-11.11;58.17
60242;SHT30;46103;52.076;113.488;2023-02-28T00:03:20;-11.08;58.11
60242;SHT30;46103;52.076;113.488;2023-02-28T00:06:24;-10.91;57.76
60242;SHT30;46103;52.076;113.488;2023-02-28T00:09:28;-10.80;57.66
60242;SHT30;46103;52.076;113.488;2023-02-28T00:12:31;-10.66;57.38
60242;SHT30;46103;52.076;113.488;2023-02-28T00:15:35;-10.52;56.85
60242;SHT30;46103;52.076;113.488;2023-02-28T00:18:39;-10.42;56.26
60242;SHT30;46103;52.076;113.488;2023-02-28T00:21:43;-10.36;56.08
60242;SHT30;46103;52.076;113.488;2023-02-28T00:24:47;-10.15;55.95
60242;SHT30;46103;52.076;113.488;2023-02-28T00:27:51;-9.98;55.31
60242;SHT30;46103;52.076;113.488;2023-02-28T00:30:55;-10.01;54.82
60242;SHT30;46103;52.076;113.488;2023-02-28T00:34:00;-9.97;55.15
60242;SHT30;46103;52.076;113.488;2023-02-28T00:37:07;-9.95;55.19
60242;SHT30;46103;52.076;113.488;2023-02-28T00:40:11;-9.75;54.87
60242;SHT30;46103;52.076;113.488;2023-02-28T00:43:15;-9.56;54.28
60242;SHT30;46103;52.076;113.488;2023-02-28T00:46:19;-9.38;53.97
60242;SHT30;46103;52.076;113.488;2023-02-28T00:49:25;-9.04;53.24
60242;SHT30;46103;52.076;113.488;2023-02-28T00:52:32;-8.83;51.97
60242;SHT30;46103;52.076;113.488;2023-02-28T00:55:35;-8.57;51.85
60242;SHT30;46103;52.076;113.488;2023-02-28T00:58:39;-8.28;50.46
60242;SHT30;46103;52.076;113.488;2023-02-28T01:01:44;-8.25;50.34
60242;SHT30;46103;52.076;113.488;2023-02-28T01:04:49;-8.02;50.12
60242;SHT30;46103;52.076;113.488;2023-02-28T01:07:53;-7.91;49.75
60242;SHT30;46103;52.076;113.488;2023-02-28T01:10:57;-7.60;49.21
60242;SHT30;46103;52.076;113.488;2023-02-28T01:14:02;-7.28;48.38
60242;SHT30;46103;52.076;113.488;2023-02-28T01:17:06;-7.32;47.91
60242;SHT30;46103;52.076;113.488;2023-02-28T01:20:10;-7.09;47.96
60242;SHT30;46103;52.076;113.488;2023-02-28T01:23:13;-7.35;48.09
60242;SHT30;46103;52.076;113.488;2023-02-28T01:26:20;-7.32;49.03
60242;SHT30;46103;52.076;113.488;2023-02-28T01:29:26;-7.18;48.68
60242;SHT30;46103;52.076;113.488;2023-02-28T01:32:29;-7.35;48.65
60242;SHT30;46103;52.076;113.488;2023-02-28T01:35:34;-7.23;48.67
60242;SHT30;46103;52.076;113.488;2023-02-28T01:38:37;-7.15;48.44
60242;SHT30;46103;52.076;113.488;2023-02-28T01:41:41;-7.14;48.44
60242;SHT30;46103;52.076;113.488;2023-02-28T01:48:27;-7.33;48.91
60242;SHT30;46103;52.076;113.488;2023-02-28T01:52:02;-7.33;49.01
60242;SHT30;46103;52.076;113.488;2023-02-28T01:55:07;-7.15;48.90
60242;SHT30;46103;52.076;113.488;2023-02-28T01:58:11;-6.87;48.37
60242;SHT30;46103;52.076;113.488;2023-02-28T02:01:15;-6.84;47.54
60242;SHT30;46103;52.076;113.488;2023-02-28T02:04:27;-6.84;47.60
60242;SHT30;46103;52.076;113.488;2023-02-28T02:07:36;-6.73;47.12
60242;SHT30;46103;52.076;113.488;2023-02-28T02:10:49;-6.69;46.94
60242;SHT30;46103;52.076;113.488;2023-02-28T02:17:35;-6.47;46.96
60242;SHT30;46103;52.076;113.488;2023-02-28T02:41:36;-5.29;44.01
60242;SHT30;46103;52.076;113.488;2023-02-28T02:44:49;-5.18;43.70
60242;SHT30;46103;52.076;113.488;2023-02-28T02:48:05;-5.38;44.33
60242;SHT30;46103;52.076;113.488;2023-02-28T02:51:14;-4.91;43.84
60242;SHT30;46103;52.076;113.488;2023-02-28T02:54:22;-4.52;42.61
60242;SHT30;46103;52.076;113.488;2023-02-28T02:57:48;-3.90;41.41
60242;SHT30;46103;52.076;113.488;2023-02-28T03:00:57;-3.58;40.19
60242;SHT30;46103;52.076;113.488;2023-02-28T03:04:14;-4.09;40.78
60242;SHT30;46103;52.076;113.488;2023-02-28T03:07:19;-3.94;39.93
60242;SHT30;46103;52.076;113.488;2023-02-28T03:10:40;-3.86;40.09
60242;SHT30;46103;52.076;113.488;2023-02-28T03:31:55;-3.48;36.84
60242;SHT30;46103;52.076;113.488;2023-02-28T03:35:19;-3.48;37.33
60242;SHT30;46103;52.076;113.488;2023-02-28T03:42:09;-3.67;37.55
60242;SHT30;46103;52.076;113.488;2023-02-28T03:45:20;-4.05;38.43
60242;SHT30;46103;52.076;113.488;2023-02-28T03:48:35;-4.14;38.43
60242;SHT30;46103;52.076;113.488;2023-02-28T03:51:46;-4.02;38.29
60242;SHT30;46103;52.076;113.488;2023-02-28T03:54:58;-4.22;38.74
60242;SHT30;46103;52.076;113.488;2023-02-28T04:01:43;-4.62;39.78
60242;SHT30;46103;52.076;113.488;2023-02-28T04:04:50;-4.63;40.24
60242;SHT30;46103;52.076;113.488;2023-02-28T04:08:06;-4.46;40.37
60242;SHT30;46103;52.076;113.488;2023-02-28T04:11:36;-3.98;40.17
60242;SHT30;46103;52.076;113.488;2023-02-28T04:14:41;-3.84;38.32
60242;SHT30;46103;52.076;113.488;2023-02-28T04:17:45;-3.87;38.60
60242;SHT30;46103;52.076;113.488;2023-02-28T04:20:48;-3.76;38.38
60242;SHT30;46103;52.076;113.488;2023-02-28T04:23:51;-3.97;38.74
60242;SHT30;46103;52.076;113.488;2023-02-28T04:26:57;-4.12;38.76
60242;SHT30;46103;52.076;113.488;2023-02-28T04:30:00;-3.79;38.55
60242;SHT30;46103;52.076;113.488;2023-02-28T04:33:04;-3.80;38.28
60242;SHT30;46103;52.076;113.488;2023-02-28T04:36:08;-3.58;37.84
60242;SHT30;46103;52.076;113.488;2023-02-28T04:39:12;-3.41;37.72
60242;SHT30;46103;52.076;113.488;2023-02-28T04:42:15;-3.53;37.85
60242;SHT30;46103;52.076;113.488;2023-02-28T04:45:18;-3.04;37.36
60242;SHT30;46103;52.076;113.488;2023-02-28T04:48:25;-2.70;36.34
60242;SHT30;46103;52.076;113.488;2023-02-28T04:51:29;-2.69;35.81
60242;SHT30;46103;52.076;113.488;2023-02-28T04:54:33;-2.52;35.80
60242;SHT30;46103;52.076;113.488;2023-02-28T04:57:37;-2.00;35.77
60242;SHT30;46103;52.076;113.488;2023-02-28T05:00:40;-0.95;32.89
60242;SHT30;46103;52.076;113.488;2023-02-28T05:03:45;-0.23;31.84
60242;SHT30;46103;52.076;113.488;2023-02-28T05:06:49;-0.07;30.19
60242;SHT30;46103;52.076;113.488;2023-02-28T05:09:53;0.13;30.51
60242;SHT30;46103;52.076;113.488;2023-02-28T05:12:56;0.31;29.72
60242;SHT30;46103;52.076;113.488;2023-02-28T05:16:00;-0.21;29.25
60242;SHT30;46103;52.076;113.488;2023-02-28T05:19:03;-1.15;28.68
60242;SHT30;46103;52.076;113.488;2023-02-28T05:22:14;-1.93;30.83
60242;SHT30;46103;52.076;113.488;2023-02-28T05:25:21;-2.87;34.75
60242;SHT30;46103;52.076;113.488;2023-02-28T05:28:27;-3.38;36.83
60242;SHT30;46103;52.076;113.488;2023-02-28T05:31:32;-3.41;36.27
60242;SHT30;46103;52.076;113.488;2023-02-28T05:34:38;-3.18;34.45
60242;SHT30;46103;52.076;113.488;2023-02-28T05:37:41;-2.94;32.50
60242;SHT30;46103;52.076;113.488;2023-02-28T05:40:45;-2.45;32.93
60242;SHT30;46103;52.076;113.488;2023-02-28T05:43:48;-2.57;32.52
60242;SHT30;46103;52.076;113.488;2023-02-28T05:46:53;-2.41;32.93
60242;SHT30;46103;52.076;113.488;2023-02-28T05:49:56;-2.95;32.55
60242;SHT30;46103;52.076;113.488;2023-02-28T05:53:01;-2.98;33.46
60242;SHT30;46103;52.076;113.488;2023-02-28T05:56:08;-3.18;32.46
60242;SHT30;46103;52.076;113.488;2023-02-28T05:59:14;-3.48;33.53
60242;SHT30;46103;52.076;113.488;2023-02-28T06:02:19;-3.69;34.64
60242;SHT30;46103;52.076;113.488;2023-02-28T06:05:26;-3.63;34.77
60242;SHT30;46103;52.076;113.488;2023-02-28T06:08:35;-3.73;35.65
60242;SHT30;46103;52.076;113.488;2023-02-28T06:11:44;-3.66;37.50
60242;SHT30;46103;52.076;113.488;2023-02-28T06:14:52;-3.66;37.46
60242;SHT30;46103;52.076;113.488;2023-02-28T06:18:01;-3.64;36.87
60242;SHT30;46103;52.076;113.488;2023-02-28T06:21:09;-3.00;35.69
60242;SHT30;46103;52.076;113.488;2023-02-28T06:24:15;-2.49;34.91
60242;SHT30;46103;52.076;113.488;2023-02-28T06:27:18;-1.90;34.26
60242;SHT30;46103;52.076;113.488;2023-02-28T06:30:23;-2.29;33.06
60242;SHT30;46103;52.076;113.488;2023-02-28T06:33:30;-2.07;33.14
60242;SHT30;46103;52.076;113.488;2023-02-28T06:36:36;-1.67;32.66
60242;SHT30;46103;52.076;113.488;2023-02-28T06:39:42;-1.86;32.52
60242;SHT30;46103;52.076;113.488;2023-02-28T06:42:50;-1.91;33.32
60242;SHT30;46103;52.076;113.488;2023-02-28T06:45:58;-1.63;33.85
60242;SHT30;46103;52.076;113.488;2023-02-28T06:49:04;-1.46;33.54
60242;SHT30;46103;52.076;113.488;2023-02-28T06:52:12;-1.19;30.31
60242;SHT30;46103;52.076;113.488;2023-02-28T06:55:19;-2.08;32.63
60242;SHT30;46103;52.076;113.488;2023-02-28T06:58:26;-1.74;33.53
60242;SHT30;46103;52.076;113.488;2023-02-28T07:01:31;-1.55;30.83
60242;SHT30;46103;52.076;113.488;2023-02-28T07:04:37;-1.35;31.06
60242;SHT30;46103;52.076;113.488;2023-02-28T07:07:46;-1.62;31.93
60242;SHT30;46103;52.076;113.488;2023-02-28T07:10:56;-1.56;32.02
60242;SHT30;46103;52.076;113.488;2023-02-28T07:14:04;-2.07;32.22
60242;SHT30;46103;52.076;113.488;2023-02-28T07:17:12;-2.39;31.74
60242;SHT30;46103;52.076;113.488;2023-02-28T07:20:19;-2.73;32.82
60242;SHT30;46103;52.076;113.488;2023-02-28T07:23:29;-2.98;34.10
60242;SHT30;46103;52.076;113.488;2023-02-28T07:26:37;-3.11;34.39
60242;SHT30;46103;52.076;113.488;2023-02-28T07:29:44;-3.34;35.07
60242;SHT30;46103;52.076;113.488;2023-02-28T07:32:52;-3.43;34.86
60242;SHT30;46103;52.076;113.488;2023-02-28T07:36:09;-3.46;34.69
60242;SHT30;46103;52.076;113.488;2023-02-28T07:39:22;-3.27;34.75
60242;SHT30;46103;52.076;113.488;2023-02-28T07:42:30;-3.18;34.42
60242;SHT30;46103;52.076;113.488;2023-02-28T07:45:38;-2.76;35.57
60242;SHT30;46103;52.076;113.488;2023-02-28T07:48:43;-2.57;35.37
60242;SHT30;46103;52.076;113.488;2023-02-28T07:51:49;-2.55;35.87
60242;SHT30;46103;52.076;113.488;2023-02-28T07:54:53;-2.49;36.18
60242;SHT30;46103;52.076;113.488;2023-02-28T07:57:57;-2.38;36.76
60242;SHT30;46103;52.076;113.488;2023-02-28T08:01:08;-2.84;34.57
60242;SHT30;46103;52.076;113.488;2023-02-28T08:04:16;-2.93;36.07
60242;SHT30;46103;52.076;113.488;2023-02-28T08:07:19;-2.90;37.10
60242;SHT30;46103;52.076;113.488;2023-02-28T08:10:24;-2.45;36.53
60242;SHT30;46103;52.076;113.488;2023-02-28T08:13:29;-2.31;35.85
60242;SHT30;46103;52.076;113.488;2023-02-28T08:16:32;-2.15;35.77
60242;SHT30;46103;52.076;113.488;2023-02-28T08:19:36;-2.19;35.83
60242;SHT30;46103;52.076;113.488;2023-02-28T08:22:40;-2.44;35.55
60242;SHT30;46103;52.076;113.488;2023-02-28T08:25:53;-3.12;38.13
60242;SHT30;46103;52.076;113.488;2023-02-28T08:28:58;-3.36;40.70
60242;SHT30;46103;52.076;113.488;2023-02-28T08:32:04;-3.70;42.36
60242;SHT30;46103;52.076;113.488;2023-02-28T08:35:16;-3.73;45.21
60242;SHT30;46103;52.076;113.488;2023-02-28T08:38:20;-4.12;49.26
60242;SHT30;46103;52.076;113.488;2023-02-28T08:41:23;-4.49;50.86
60242;SHT30;46103;52.076;113.488;2023-02-28T08:44:27;-4.80;52.72
60242;SHT30;46103;52.076;113.488;2023-02-28T08:47:31;-4.90;54.31
60242;SHT30;46103;52.076;113.488;2023-02-28T08:50:34;-5.15;54.63
60242;SHT30;46103;52.076;113.488;2023-02-28T08:53:39;-5.26;55.09
60242;SHT30;46103;52.076;113.488;2023-02-28T08:56:43;-5.11;54.90
60242;SHT30;46103;52.076;113.488;2023-02-28T08:59:47;-4.88;54.29
60242;SHT30;46103;52.076;113.488;2023-02-28T09:02:50;-4.72;53.60
60242;SHT30;46103;52.076;113.488;2023-02-28T09:05:59;-4.05;51.42
60242;SHT30;46103;52.076;113.488;2023-02-28T09:09:03;-3.42;49.00
60242;SHT30;46103;52.076;113.488;2023-02-28T09:12:09;-2.45;46.33
60242;SHT30;46103;52.076;113.488;2023-02-28T09:15:14;-1.63;42.80
60242;SHT30;46103;52.076;113.488;2023-02-28T09:18:17;-2.36;42.50
60242;SHT30;46103;52.076;113.488;2023-02-28T09:21:20;-3.22;43.99
60242;SHT30;46103;52.076;113.488;2023-02-28T09:24:22;-3.93;44.79
60242;SHT30;46103;52.076;113.488;2023-02-28T09:27:26;-4.56;51.77
60242;SHT30;46103;52.076;113.488;2023-02-28T09:30:30;-5.03;57.09
60242;SHT30;46103;52.076;113.488;2023-02-28T09:33:34;-5.44;60.06
60242;SHT30;46103;52.076;113.488;2023-02-28T09:36:38;-5.49;60.67
60242;SHT30;46103;52.076;113.488;2023-02-28T09:39:47;-5.56;60.97
60242;SHT30;46103;52.076;113.488;2023-02-28T09:42:53;-5.62;61.47
60242;SHT30;46103;52.076;113.488;2023-02-28T09:49:28;-5.83;62.80
60242;SHT30;46103;52.076;113.488;2023-02-28T09:52:32;-5.91;63.28
60242;SHT30;46103;52.076;113.488;2023-02-28T09:55:42;-5.86;63.38
60242;SHT30;46103;52.076;113.488;2023-02-28T09:58:57;-5.87;63.36
60242;SHT30;46103;52.076;113.488;2023-02-28T10:02:21;-5.88;63.32
60242;SHT30;46103;52.076;113.488;2023-02-28T10:05:52;-5.94;63.49
60242;SHT30;46103;52.076;113.488;2023-02-28T10:12:03;-6.12;63.86
60242;SHT30;46103;52.076;113.488;2023-02-28T10:15:14;-6.21;64.27
60242;SHT30;46103;52.076;113.488;2023-02-28T10:18:23;-6.24;64.32
60242;SHT30;46103;52.076;113.488;2023-02-28T10:21:47;-6.22;64.10
60242;SHT30;46103;52.076;113.488;2023-02-28T10:24:54;-6.17;63.52
60242;SHT30;46103;52.076;113.488;2023-02-28T10:28:20;-6.05;62.82
60242;SHT30;46103;52.076;113.488;2023-02-28T10:31:23;-6.04;60.30
60242;SHT30;46103;52.076;113.488;2023-02-28T10:34:28;-6.18;61.04
60242;SHT30;46103;52.076;113.488;2023-02-28T10:37:31;-6.19;62.33
60242;SHT30;46103;52.076;113.488;2023-02-28T10:40:35;-6.46;61.78
60242;SHT30;46103;52.076;113.488;2023-02-28T10:43:42;-6.79;62.91
60242;SHT30;46103;52.076;113.488;2023-02-28T10:46:48;-6.91;62.41
60242;SHT30;46103;52.076;113.488;2023-02-28T10:49:51;-7.03;62.44
60242;SHT30;46103;52.076;113.488;2023-02-28T10:53:07;-7.19;62.74
60242;SHT30;46103;52.076;113.488;2023-02-28T10:59:29;-7.38;63.18
60242;SHT30;46103;52.076;113.488;2023-02-28T11:02:37;-7.44;62.39
60242;SHT30;46103;52.076;113.488;2023-02-28T11:05:42;-7.53;62.76
60242;SHT30;46103;52.076;113.488;2023-02-28T11:08:55;-7.63;61.86
60242;SHT30;46103;52.076;113.488;2023-02-28T11:11:59;-7.66;62.05
60242;SHT30;46103;52.076;113.488;2023-02-28T11:15:21;-7.76;62.31
60242;SHT30;46103;52.076;113.488;2023-02-28T11:18:35;-7.83;62.42
60242;SHT30;46103;52.076;113.488;2023-02-28T11:21:51;-7.83;62.72
60242;SHT30;46103;52.076;113.488;2023-02-28T11:25:01;-7.83;62.74
60242;SHT30;46103;52.076;113.488;2023-02-28T11:28:22;-7.80;62.27
60242;SHT30;46103;52.076;113.488;2023-02-28T11:31:26;-7.81;60.24
60242;SHT30;46103;52.076;113.488;2023-02-28T11:34:32;-7.83;59.13
60242;SHT30;46103;52.076;113.488;2023-02-28T11:37:38;-7.88;57.60
60242;SHT30;46103;52.076;113.488;2023-02-28T11:44:18;-7.97;56.16
60242;SHT30;46103;52.076;113.488;2023-02-28T11:51:05;-8.04;57.92
60242;SHT30;46103;52.076;113.488;2023-02-28T11:54:46;-8.11;58.89
60242;SHT30;46103;52.076;113.488;2023-02-28T11:58:23;-8.14;58.63
60242;SHT30;46103;52.076;113.488;2023-02-28T12:08:30;-8.29;57.48
60242;SHT30;46103;52.076;113.488;2023-02-28T12:11:56;-8.36;57.61
60242;SHT30;46103;52.076;113.488;2023-02-28T12:15:36;-8.47;58.15
60242;SHT30;46103;52.076;113.488;2023-02-28T12:25:19;-8.68;58.31
60242;SHT30;46103;52.076;113.488;2023-02-28T12:28:49;-8.68;57.15
60242;SHT30;46103;52.076;113.488;2023-02-28T12:38:19;-9.07;58.30
60242;SHT30;46103;52.076;113.488;2023-02-28T12:41:29;-9.07;58.26
60242;SHT30;46103;52.076;113.488;2023-02-28T12:44:49;-9.11;58.72
60242;SHT30;46103;52.076;113.488;2023-02-28T12:48:00;-9.18;58.75
60242;SHT30;46103;52.076;113.488;2023-02-28T12:51:07;-9.28;58.49
60242;SHT30;46103;52.076;113.488;2023-02-28T13:10:51;-9.71;56.68
60242;SHT30;46103;52.076;113.488;2023-02-28T13:14:03;-9.75;56.88
60242;SHT30;46103;52.076;113.488;2023-02-28T13:20:35;-9.80;57.46
60242;SHT30;46103;52.076;113.488;2023-02-28T13:34:04;-9.82;57.79
60242;SHT30;46103;52.076;113.488;2023-02-28T13:40:29;-10.04;57.28
60242;SHT30;46103;52.076;113.488;2023-02-28T13:44:26;-10.14;56.56
60242;SHT30;46103;52.076;113.488;2023-02-28T13:47:27;-10.18;56.58
60242;SHT30;46103;52.076;113.488;2023-02-28T13:50:36;-10.24;55.99
60242;SHT30;46103;52.076;113.488;2023-02-28T13:53:57;-10.33;57.42
60242;SHT30;46103;52.076;113.488;2023-02-28T14:07:32;-10.50;57.53
60242;SHT30;46103;52.076;113.488;2023-02-28T14:10:48;-10.58;57.89
60242;SHT30;46103;52.076;113.488;2023-02-28T14:13:52;-10.61;58.34
60242;SHT30;46103;52.076;113.488;2023-02-28T14:16:57;-10.60;57.75
60242;SHT30;46103;52.076;113.488;2023-02-28T14:20:01;-10.54;57.39
60242;SHT30;46103;52.076;113.488;2023-02-28T14:30:13;-10.53;56.88
60242;SHT30;46103;52.076;113.488;2023-02-28T14:33:57;-10.54;56.95
60242;SHT30;46103;52.076;113.488;2023-02-28T14:36:58;-10.56;57.02
60242;SHT30;46103;52.076;113.488;2023-02-28T14:40:04;-10.58;57.31
60242;SHT30;46103;52.076;113.488;2023-02-28T14:43:46;-10.63;57.50
60242;SHT30;46103;52.076;113.488;2023-02-28T14:46:56;-10.68;57.87
60242;SHT30;46103;52.076;113.488;2023-02-28T14:50:03;-10.70;57.82
60242;SHT30;46103;52.076;113.488;2023-02-28T14:53:18;-10.78;57.72
60242;SHT30;46103;52.076;113.488;2023-02-28T14:56:37;-10.78;58.13
60242;SHT30;46103;52.076;113.488;2023-02-28T14:59:41;-10.80;57.28
60242;SHT30;46103;52.076;113.488;2023-02-28T15:02:45;-10.75;56.77
60242;SHT30;46103;52.076;113.488;2023-02-28T15:06:00;-10.80;56.82
60242;SHT30;46103;52.076;113.488;2023-02-28T15:09:18;-10.91;57.57
60242;SHT30;46103;52.076;113.488;2023-02-28T15:12:22;-10.94;58.38
60242;SHT30;46103;52.076;113.488;2023-02-28T15:15:45;-10.91;58.17
60242;SHT30;46103;52.076;113.488;2023-02-28T15:19:07;-10.97;58.25
60242;SHT30;46103;52.076;113.488;2023-02-28T15:22:17;-11.04;58.52
60242;SHT30;46103;52.076;113.488;2023-02-28T15:25:23;-11.04;58.03
60242;SHT30;46103;52.076;113.488;2023-02-28T15:28:28;-11.02;57.06
60242;SHT30;46103;52.076;113.488;2023-02-28T15:31:40;-11.08;57.73
60242;SHT30;46103;52.076;113.488;2023-02-28T15:35:16;-11.10;57.79
60242;SHT30;46103;52.076;113.488;2023-02-28T15:38:26;-11.08;57.67
60242;SHT30;46103;52.076;113.488;2023-02-28T15:41:37;-11.12;58.07
60242;SHT30;46103;52.076;113.488;2023-02-28T15:44:45;-11.19;58.34
60242;SHT30;46103;52.076;113.488;2023-02-28T15:47:52;-11.18;58.03
60242;SHT30;46103;52.076;113.488;2023-02-28T15:51:22;-11.18;58.07
60242;SHT30;46103;52.076;113.488;2023-02-28T15:54:33;-11.21;57.81
60242;SHT30;46103;52.076;113.488;2023-02-28T15:57:42;-11.32;57.48
60242;SHT30;46103;52.076;113.488;2023-02-28T16:04:25;-11.49;58.47
60242;SHT30;46103;52.076;113.488;2023-02-28T16:07:41;-11.59;58.26
60242;SHT30;46103;52.076;113.488;2023-02-28T16:10:49;-11.70;59.49
60242;SHT30;46103;52.076;113.488;2023-02-28T16:13:59;-11.70;59.71
60242;SHT30;46103;52.076;113.488;2023-02-28T16:17:22;-11.64;59.17
60242;SHT30;46103;52.076;113.488;2023-02-28T16:20:31;-11.71;59.14
60242;SHT30;46103;52.076;113.488;2023-02-28T16:23:40;-11.87;58.77
60242;SHT30;46103;52.076;113.488;2023-02-28T16:26:53;-11.85;59.52
60242;SHT30;46103;52.076;113.488;2023-02-28T16:30:03;-11.82;59.39
60242;SHT30;46103;52.076;113.488;2023-02-28T16:33:13;-11.87;59.30
60242;SHT30;46103;52.076;113.488;2023-02-28T16:36:23;-11.97;60.20
60242;SHT30;46103;52.076;113.488;2023-02-28T16:39:36;-11.97;60.53
60242;SHT30;46103;52.076;113.488;2023-02-28T16:42:46;-12.01;59.63
60242;SHT30;46103;52.076;113.488;2023-02-28T16:45:57;-12.01;59.68
60242;SHT30;46103;52.076;113.488;2023-02-28T16:49:11;-12.02;60.06
60242;SHT30;46103;52.076;113.488;2023-02-28T16:52:19;-12.11;59.63
60242;SHT30;46103;52.076;113.488;2023-02-28T16:55:28;-12.14;59.43
60242;SHT30;46103;52.076;113.488;2023-02-28T16:58:37;-12.22;59.64
60242;SHT30;46103;52.076;113.488;2023-02-28T17:01:46;-12.24;59.20
60242;SHT30;46103;52.076;113.488;2023-02-28T17:04:56;-12.33;59.26
60242;SHT30;46103;52.076;113.488;2023-02-28T17:08:06;-12.32;59.13
60242;SHT30;46103;52.076;113.488;2023-02-28T17:11:13;-12.29;58.93
60242;SHT30;46103;52.076;113.488;2023-02-28T17:14:23;-12.29;58.58
60242;SHT30;46103;52.076;113.488;2023-02-28T17:17:33;-12.33;58.29
60242;SHT30;46103;52.076;113.488;2023-02-28T17:20:42;-12.37;58.33
60242;SHT30;46103;52.076;113.488;2023-02-28T17:23:52;-12.46;58.38
60242;SHT30;46103;52.076;113.488;2023-02-28T17:27:03;-12.42;58.48
60242;SHT30;46103;52.076;113.488;2023-02-28T17:30:19;-12.39;58.12
60242;SHT30;46103;52.076;113.488;2023-02-28T17:33:30;-12.43;58.59
60242;SHT30;46103;52.076;113.488;2023-02-28T17:36:40;-12.50;59.25
60242;SHT30;46103;52.076;113.488;2023-02-28T17:39:50;-12.46;58.61
60242;SHT30;46103;52.076;113.488;2023-02-28T17:43:02;-12.40;58.16
60242;SHT30;46103;52.076;113.488;2023-02-28T17:46:22;-12.42;57.98
60242;SHT30;46103;52.076;113.488;2023-02-28T17:49:32;-12.42;58.02
60242;SHT30;46103;52.076;113.488;2023-02-28T17:52:38;-12.61;58.57
60242;SHT30;46103;52.076;113.488;2023-02-28T17:55:47;-12.63;59.21
60242;SHT30;46103;52.076;113.488;2023-02-28T17:58:56;-12.67;59.29
60242;SHT30;46103;52.076;113.488;2023-02-28T18:02:05;-12.67;58.93
60242;SHT30;46103;52.076;113.488;2023-02-28T18:05:14;-12.64;58.56
60242;SHT30;46103;52.076;113.488;2023-02-28T18:08:25;-12.66;58.24
60242;SHT30;46103;52.076;113.488;2023-02-28T18:11:35;-12.61;58.18
60242;SHT30;46103;52.076;113.488;2023-02-28T18:14:49;-12.61;57.92
60242;SHT30;46103;52.076;113.488;2023-02-28T18:17:59;-12.73;58.11
60242;SHT30;46103;52.076;113.488;2023-02-28T18:21:10;-12.80;58.93
60242;SHT30;46103;52.076;113.488;2023-02-28T18:24:20;-12.83;58.93
60242;SHT30;46103;52.076;113.488;2023-02-28T18:27:31;-12.88;58.56
60242;SHT30;46103;52.076;113.488;2023-02-28T18:30:41;-12.84;58.03
60242;SHT30;46103;52.076;113.488;2023-02-28T18:33:52;-12.87;58.08
60242;SHT30;46103;52.076;113.488;2023-02-28T18:37:01;-12.91;58.05
60242;SHT30;46103;52.076;113.488;2023-02-28T18:40:12;-12.96;58.14
60242;SHT30;46103;52.076;113.488;2023-02-28T18:43:22;-12.96;57.88
60242;SHT30;46103;52.076;113.488;2023-02-28T18:46:33;-12.95;57.91
60242;SHT30;46103;52.076;113.488;2023-02-28T18:49:43;-12.96;57.90
60242;SHT30;46103;52.076;113.488;2023-02-28T18:52:54;-12.95;57.85
60242;SHT30;46103;52.076;113.488;2023-02-28T18:56:07;-13.01;57.94
60242;SHT30;46103;52.076;113.488;2023-02-28T18:59:17;-13.02;58.25
60242;SHT30;46103;52.076;113.488;2023-02-28T19:02:27;-13.01;58.34
60242;SHT30;46103;52.076;113.488;2023-02-28T19:05:38;-13.06;58.74
60242;SHT30;46103;52.076;113.488;2023-02-28T19:08:51;-13.11;58.87
60242;SHT30;46103;52.076;113.488;2023-02-28T19:12:02;-13.13;59.03
60242;SHT30;46103;52.076;113.488;2023-02-28T19:15:12;-13.09;59.08
60242;SHT30;46103;52.076;113.488;2023-02-28T19:18:21;-13.09;59.26
60242;SHT30;46103;52.076;113.488;2023-02-28T19:21:31;-13.13;59.99
60242;SHT30;46103;52.076;113.488;2023-02-28T19:24:43;-13.11;59.91
60242;SHT30;46103;52.076;113.488;2023-02-28T19:27:53;-13.16;59.97
60242;SHT30;46103;52.076;113.488;2023-02-28T19:31:04;-13.16;60.14
60242;SHT30;46103;52.076;113.488;2023-02-28T19:34:13;-13.09;60.27
60242;SHT30;46103;52.076;113.488;2023-02-28T19:37:23;-13.09;59.89
60242;SHT30;46103;52.076;113.488;2023-02-28T19:40:33;-13.08;59.60
60242;SHT30;46103;52.076;113.488;2023-02-28T19:43:44;-13.15;59.78
60242;SHT30;46103;52.076;113.488;2023-02-28T19:46:53;-13.13;60.00
60242;SHT30;46103;52.076;113.488;2023-02-28T19:50:03;-13.16;59.57
60242;SHT30;46103;52.076;113.488;2023-02-28T19:53:13;-13.19;59.41
60242;SHT30;46103;52.076;113.488;2023-02-28T19:56:23;-13.25;60.02
60242;SHT30;46103;52.076;113.488;2023-02-28T19:59:33;-13.20;59.87
60242;SHT30;46103;52.076;113.488;2023-02-28T20:02:44;-13.20;59.95
60242;SHT30;46103;52.076;113.488;2023-02-28T20:06:01;-13.13;59.87
60242;SHT30;46103;52.076;113.488;2023-02-28T20:09:11;-13.12;59.80
60242;SHT30;46103;52.076;113.488;2023-02-28T20:12:21;-13.15;59.75
60242;SHT30;46103;52.076;113.488;2023-02-28T20:15:32;-13.15;59.48
60242;SHT30;46103;52.076;113.488;2023-02-28T20:18:43;-13.12;59.40
60242;SHT30;46103;52.076;113.488;2023-02-28T20:21:54;-13.11;59.35
60242;SHT30;46103;52.076;113.488;2023-02-28T20:25:05;-13.16;59.22
60242;SHT30;46103;52.076;113.488;2023-02-28T20:28:15;-13.18;59.50
60242;SHT30;46103;52.076;113.488;2023-02-28T20:31:26;-13.23;59.57
60242;SHT30;46103;52.076;113.488;2023-02-28T20:34:37;-13.34;59.81
60242;SHT30;46103;52.076;113.488;2023-02-28T20:37:47;-13.46;59.79
60242;SHT30;46103;52.076;113.488;2023-02-28T20:41:00;-13.55;60.20
60242;SHT30;46103;52.076;113.488;2023-02-28T20:44:12;-13.60;60.25
60242;SHT30;46103;52.076;113.488;2023-02-28T20:47:21;-13.64;60.47
60242;SHT30;46103;52.076;113.488;2023-02-28T20:50:33;-13.67;60.55
60242;SHT30;46103;52.076;113.488;2023-02-28T20:53:41;-13.72;61.06
60242;SHT30;46103;52.076;113.488;2023-02-28T20:56:52;-13.82;61.16
60242;SHT30;46103;52.076;113.488;2023-02-28T21:00:00;-13.82;60.99
60242;SHT30;46103;52.076;113.488;2023-02-28T21:03:10;-13.77;60.85
60242;SHT30;46103;52.076;113.488;2023-02-28T21:06:22;-13.74;60.76
60242;SHT30;46103;52.076;113.488;2023-02-28T21:09:30;-13.70;60.73
60242;SHT30;46103;52.076;113.488;2023-02-28T21:12:41;-13.70;60.72
60242;SHT30;46103;52.076;113.488;2023-02-28T21:15:52;-13.75;60.42
60242;SHT30;46103;52.076;113.488;2023-02-28T21:19:01;-13.81;60.69
60242;SHT30;46103;52.076;113.488;2023-02-28T21:22:11;-13.85;60.85
60242;SHT30;46103;52.076;113.488;2023-02-28T21:25:21;-13.93;61.17
60242;SHT30;46103;52.076;113.488;2023-02-28T21:28:33;-13.96;61.29
60242;SHT30;46103;52.076;113.488;2023-02-28T21:31:42;-13.93;61.43
60242;SHT30;46103;52.076;113.488;2023-02-28T21:34:54;-13.89;61.63